createdAt,value
2023-06-30T00:04:54.418Z,66.06
2023-06-30T00:09:55.993Z,66.25
2023-06-30T00:14:57.538Z,65.40
2023-06-30T00:20:00.159Z,64.66
2023-06-30T00:25:02.003Z,64.85
2023-06-30T00:30:03.894Z,65.68
2023-06-30T00:35:05.898Z,65.55
2023-06-30T00:40:08.042Z,65.15
2023-06-30T00:45:10.243Z,66.09
2023-06-30T00:50:13.519Z,65.72
2023-06-30T00:55:16.193Z,66.34
2023-06-30T01:00:18.345Z,65.49
2023-06-30T01:05:40.722Z,65.49
2023-06-30T01:10:45.143Z,62.28
2023-06-30T01:15:48.377Z,61.42
2023-06-30T01:20:52.047Z,62.59
2023-06-30T01:25:54.150Z,62.81
2023-06-30T01:30:57.490Z,64.11
2023-06-30T01:35:59.190Z,65.53
2023-06-30T01:41:01.955Z,66.79
2023-06-30T01:46:04.590Z,66.55
2023-06-30T01:51:06.820Z,66.51
2023-06-30T01:56:08.470Z,66.47
2023-06-30T02:01:09.965Z,67.58
2023-06-30T02:06:11.574Z,66.07
2023-06-30T02:11:13.076Z,65.35
2023-06-30T02:16:14.529Z,65.34
2023-06-30T02:21:16.114Z,64.99
2023-06-30T02:26:17.666Z,66.04
2023-06-30T02:31:19.172Z,64.62
2023-06-30T02:36:20.667Z,65.77
2023-06-30T02:41:22.101Z,65.15
2023-06-30T02:46:23.785Z,65.99
2023-06-30T02:51:25.253Z,64.74
2023-06-30T02:56:26.893Z,63.37
2023-06-30T03:01:28.521Z,63.43
2023-06-30T03:06:30.013Z,63.51
2023-06-30T03:11:31.624Z,64.50
2023-06-30T03:16:33.272Z,64.25
2023-06-30T03:21:34.779Z,65.86
2023-06-30T03:26:36.184Z,66.06
2023-06-30T03:31:37.630Z,65.96
2023-06-30T03:36:39.224Z,66.16
2023-06-30T03:41:40.663Z,66.08
2023-06-30T03:46:42.231Z,67.04
2023-06-30T03:51:43.805Z,67.21
2023-06-30T03:56:45.323Z,68.46
2023-06-30T04:01:46.904Z,68.79
2023-06-30T04:06:48.476Z,69.43
2023-06-30T04:11:50.022Z,70.40
2023-06-30T04:16:51.593Z,70.78
2023-06-30T04:21:53.177Z,71.49
2023-06-30T04:26:54.625Z,70.54
2023-06-30T04:31:56.731Z,70.52
2023-06-30T04:36:58.249Z,70.70
2023-06-30T04:42:00.198Z,69.61
2023-06-30T04:47:01.819Z,69.67
2023-06-30T04:52:03.569Z,69.87
2023-06-30T04:57:06.390Z,68.84
2023-06-30T05:02:07.826Z,69.86
2023-06-30T05:07:10.998Z,68.64
2023-06-30T05:12:13.962Z,69.45
2023-06-30T05:17:15.785Z,68.45
2023-06-30T05:22:17.481Z,68.08
2023-06-30T05:27:19.585Z,68.26
2023-06-30T05:32:21.230Z,67.90
2023-06-30T05:37:22.777Z,67.83
2023-06-30T05:42:24.283Z,66.40
2023-06-30T05:47:25.745Z,66.91
2023-06-30T05:52:28.292Z,67.30
2023-06-30T05:57:29.700Z,67.47
2023-06-30T06:02:31.231Z,66.88
2023-06-30T06:07:33.257Z,65.37
2023-06-30T06:12:34.830Z,65.78
2023-06-30T06:17:37.020Z,66.80
2023-06-30T06:22:38.549Z,65.09
2023-06-30T06:27:40.034Z,65.19
2023-06-30T06:32:41.527Z,63.23
2023-06-30T06:37:43.116Z,62.71
2023-06-30T06:42:44.552Z,63.75
2023-06-30T06:48:17.000Z,63.38
2023-06-30T06:53:23.923Z,62.38
2023-06-30T06:58:27.719Z,60.80
2023-06-30T07:03:29.279Z,61.92
2023-06-30T07:08:35.995Z,61.99
2023-06-30T07:13:39.231Z,59.16
2023-06-30T07:18:41.101Z,60.99
2023-06-30T07:23:42.757Z,59.03
2023-06-30T07:28:44.418Z,59.50
2023-06-30T07:33:46.028Z,59.39
2023-06-30T07:38:47.632Z,60.61
2023-06-30T07:43:49.216Z,60.32
2023-06-30T07:48:50.749Z,59.66
2023-06-30T07:53:52.341Z,61.64
2023-06-30T07:58:53.777Z,61.33
2023-06-30T08:03:55.505Z,59.05
2023-06-30T08:08:57.317Z,60.82
2023-06-30T08:14:01.000Z,61.24
2023-06-30T08:19:02.881Z,60.12
2023-06-30T08:24:04.772Z,61.41
2023-06-30T08:29:06.264Z,60.68
2023-06-30T08:34:09.638Z,60.06
2023-06-30T08:39:12.861Z,60.54
2023-06-30T08:44:15.889Z,59.96
2023-06-30T08:49:17.782Z,58.97
2023-06-30T08:54:19.742Z,58.54
2023-06-30T08:59:21.485Z,59.57
2023-06-30T09:04:24.271Z,59.83
2023-06-30T09:09:32.860Z,58.80
2023-06-30T09:14:35.364Z,57.36
2023-06-30T09:19:37.181Z,55.99
2023-06-30T09:24:38.752Z,56.71
2023-06-30T09:29:40.807Z,56.56
2023-06-30T09:34:42.350Z,57.19
2023-06-30T09:39:50.797Z,54.54
2023-06-30T09:44:53.387Z,55.33
2023-06-30T09:49:55.022Z,54.08
2023-06-30T09:54:56.500Z,54.53
2023-06-30T10:00:01.009Z,55.06
2023-06-30T10:05:02.535Z,54.01
2023-06-30T10:10:04.449Z,54.04
2023-06-30T10:15:09.756Z,50.59
2023-06-30T10:20:11.946Z,51.75
2023-06-30T10:25:18.086Z,51.60
2023-06-30T10:30:20.046Z,51.68
2023-06-30T10:35:22.746Z,52.36
2023-06-30T10:40:28.587Z,49.39
2023-06-30T10:45:32.007Z,49.91
2023-06-30T10:50:53.941Z,50.28
2023-06-30T10:55:58.581Z,50.66
2023-06-30T11:01:07.134Z,50.22
2023-06-30T11:06:20.779Z,48.72
2023-06-30T11:11:22.704Z,49.63
2023-06-30T11:16:29.785Z,50.80
2023-06-30T11:21:31.816Z,50.06
2023-06-30T11:26:37.052Z,50.41
2023-06-30T11:31:38.488Z,48.75
2023-06-30T11:36:39.917Z,47.15
2023-06-30T11:41:41.394Z,47.25
2023-06-30T11:46:42.913Z,47.63
2023-06-30T11:51:44.465Z,47.31
2023-06-30T11:56:45.965Z,47.50
2023-06-30T12:01:47.421Z,46.20
2023-06-30T12:06:50.026Z,45.87
2023-06-30T12:11:51.486Z,45.82
2023-06-30T12:16:53.729Z,44.74
2023-06-30T12:22:02.793Z,48.21
2023-06-30T12:27:07.014Z,46.90
2023-06-30T12:32:17.611Z,47.94
2023-06-30T12:37:20.998Z,47.67
2023-06-30T12:42:23.947Z,48.90
2023-06-30T12:47:25.486Z,49.74
2023-06-30T12:52:26.976Z,50.02
2023-06-30T12:57:28.758Z,50.07
2023-06-30T13:02:30.701Z,52.21
2023-06-30T13:07:35.299Z,51.03
2023-06-30T13:12:41.051Z,51.13
2023-06-30T13:17:43.469Z,50.92
2023-06-30T13:22:56.949Z,50.82
2023-06-30T13:28:06.885Z,50.85
2023-06-30T13:33:08.998Z,50.71
2023-06-30T13:38:12.403Z,49.91
2023-06-30T13:43:13.851Z,49.33
2023-06-30T13:48:15.356Z,48.90
2023-06-30T13:53:16.863Z,49.30
2023-06-30T13:58:18.321Z,49.49
2023-06-30T14:03:19.802Z,48.13
2023-06-30T14:08:21.425Z,48.25
2023-06-30T14:13:22.931Z,48.40
2023-06-30T14:18:24.409Z,49.16
2023-06-30T14:23:25.923Z,45.40
2023-06-30T14:28:27.386Z,45.92
2023-06-30T14:33:28.821Z,46.03
2023-06-30T14:38:30.632Z,44.97
2023-06-30T14:43:32.117Z,46.83
2023-06-30T14:48:33.669Z,46.75
2023-06-30T14:53:35.247Z,48.97
2023-06-30T14:58:37.371Z,50.35
2023-06-30T15:03:38.996Z,49.75
2023-06-30T15:08:40.569Z,49.83
2023-06-30T15:13:42.030Z,48.66
2023-06-30T15:18:43.551Z,51.38
2023-06-30T15:23:44.997Z,50.33
2023-06-30T15:28:46.528Z,49.12
2023-06-30T15:33:48.166Z,46.98
2023-06-30T15:38:49.648Z,46.30
2023-06-30T15:43:51.585Z,47.72
2023-06-30T15:48:53.128Z,47.39
2023-06-30T15:53:54.631Z,47.19
2023-06-30T15:58:56.256Z,46.85
2023-06-30T16:03:57.879Z,46.67
2023-06-30T16:08:59.489Z,45.50
2023-06-30T16:14:00.995Z,46.87
2023-06-30T16:19:02.549Z,48.02
2023-06-30T16:24:04.355Z,45.42
2023-06-30T16:29:05.830Z,44.38
2023-06-30T16:34:07.468Z,48.20
2023-06-30T16:39:09.726Z,47.40
2023-06-30T16:44:11.223Z,47.99
2023-06-30T16:49:12.750Z,46.86
2023-06-30T16:54:14.300Z,50.01
2023-06-30T16:59:16.134Z,50.25
2023-06-30T17:04:17.633Z,49.79
2023-06-30T17:09:20.419Z,50.76
2023-06-30T17:14:22.064Z,50.82
2023-06-30T17:19:23.629Z,50.14
2023-06-30T17:24:25.753Z,49.81
2023-06-30T17:29:27.262Z,51.89
2023-06-30T17:34:28.788Z,51.91
2023-06-30T17:39:30.514Z,50.45
2023-06-30T17:44:32.375Z,51.27
2023-06-30T17:49:34.807Z,50.04
2023-06-30T17:54:36.358Z,51.07
2023-06-30T17:59:37.834Z,50.56
2023-06-30T18:04:39.481Z,50.24
2023-06-30T18:09:44.924Z,51.65
2023-06-30T18:14:46.531Z,51.39
2023-06-30T18:19:48.072Z,51.90
2023-06-30T18:24:49.528Z,52.03
2023-06-30T18:29:52.599Z,53.80
2023-06-30T18:34:54.317Z,50.89
2023-06-30T18:39:56.604Z,50.75
2023-06-30T18:44:58.031Z,47.88
2023-06-30T18:49:59.456Z,48.24
2023-06-30T18:55:00.934Z,48.09
2023-06-30T19:00:04.894Z,48.19
2023-06-30T19:05:07.175Z,47.88
2023-06-30T19:10:10.414Z,49.13
2023-06-30T19:15:11.865Z,48.93
2023-06-30T19:20:13.523Z,51.03
2023-06-30T19:25:16.705Z,50.50
2023-06-30T19:30:18.516Z,51.88
2023-06-30T19:35:20.519Z,52.08
2023-06-30T19:40:24.814Z,52.52
2023-06-30T19:45:26.763Z,52.92
2023-06-30T19:50:28.980Z,53.79
2023-06-30T19:55:32.882Z,55.79
2023-06-30T20:00:34.768Z,55.50
2023-06-30T20:05:36.813Z,55.62
2023-06-30T20:10:38.541Z,56.00
2023-06-30T20:15:40.039Z,56.98
2023-06-30T20:20:41.580Z,57.49
2023-06-30T20:25:43.124Z,57.09
2023-06-30T20:30:44.776Z,57.04
2023-06-30T20:35:46.555Z,57.05
2023-06-30T20:40:48.267Z,57.07
2023-06-30T20:45:50.002Z,57.11
2023-06-30T20:50:51.441Z,56.95
2023-06-30T20:55:56.026Z,57.01
2023-06-30T21:00:57.565Z,56.76
2023-06-30T21:05:59.010Z,57.82
2023-06-30T21:11:00.507Z,57.99
2023-06-30T21:16:02.269Z,58.74
2023-06-30T21:21:03.882Z,57.94
2023-06-30T21:26:05.269Z,58.52
2023-06-30T21:31:06.686Z,59.32
2023-06-30T21:36:08.163Z,58.42
2023-06-30T21:41:09.777Z,57.59
2023-06-30T21:46:16.133Z,57.59
2023-06-30T21:51:17.784Z,57.49
2023-06-30T21:56:19.519Z,58.37
2023-06-30T22:01:25.574Z,58.95
2023-06-30T22:06:30.329Z,59.03
2023-06-30T22:11:31.856Z,59.07
2023-06-30T22:16:33.497Z,59.25
2023-06-30T22:21:34.967Z,59.46
2023-06-30T22:26:36.502Z,59.92
2023-06-30T22:31:38.103Z,60.83
2023-06-30T22:36:39.639Z,59.87
2023-06-30T22:41:41.096Z,60.77
2023-06-30T22:46:42.631Z,60.24
2023-06-30T22:51:44.373Z,60.07
2023-06-30T22:56:46.080Z,60.69
2023-06-30T23:01:47.630Z,59.74
2023-06-30T23:06:49.135Z,60.16
2023-06-30T23:11:50.705Z,59.45
2023-06-30T23:16:52.406Z,59.99
2023-06-30T23:22:06.764Z,59.94
2023-06-30T23:27:08.451Z,60.99
2023-06-30T23:32:10.997Z,61.06
2023-06-30T23:37:14.367Z,61.43
2023-06-30T23:42:15.908Z,62.01
2023-06-30T23:47:17.548Z,62.41
2023-06-30T23:52:19.334Z,63.40
2023-06-30T23:57:20.814Z,63.23
